TimeCDT,TemperatureF,Dew PointF,Humidity,Sea Level PressureIn,VisibilityMPH,Wind Direction,Wind SpeedMPH,Gust SpeedMPH,PrecipitationIn,Events,Conditions,WindDirDegrees,DateUTC
12:53 AM,73.9,72.0,93,29.95,10.0,East,4.6,-,N/A,,Clear,90,2012-10-07 05:53:00
1:53 AM,73.9,72.0,93,29.94,10.0,ENE,5.8,-,N/A,,Partly Cloudy,70,2012-10-07 06:53:00
2:53 AM,75.0,72.0,90,29.94,10.0,ENE,3.5,-,N/A,,Clear,70,2012-10-07 07:53:00
3:53 AM,73.9,72.0,93,29.94,10.0,ENE,3.5,-,N/A,,Clear,60,2012-10-07 08:53:00
4:53 AM,73.9,72.0,93,29.94,10.0,ENE,5.8,-,N/A,,Clear,60,2012-10-07 09:53:00
5:53 AM,73.9,71.1,91,29.95,10.0,North,4.6,-,N/A,,Clear,10,2012-10-07 10:53:00
6:53 AM,72.0,70.0,93,29.97,10.0,Calm,Calm,-,N/A,,Clear,0,2012-10-07 11:53:00
7:43 AM,73.4,71.6,94,29.99,10.0,North,5.8,-,N/A,,Mostly Cloudy,350,2012-10-07 12:43:00
7:53 AM,73.9,71.1,91,29.99,10.0,North,5.8,-,N/A,,Mostly Cloudy,10,2012-10-07 12:53:00
8:46 AM,73.4,71.6,94,30.02,9.0,North,10.4,-,N/A,,Scattered Clouds,350,2012-10-07 13:46:00
8:53 AM,75.0,71.1,87,30.01,9.0,North,10.4,-,N/A,,Partly Cloudy,350,2012-10-07 13:53:00
9:53 AM,78.1,72.0,81,30.03,10.0,NNE,10.4,25.3,N/A,,Partly Cloudy,20,2012-10-07 14:53:00
10:53 AM,81.0,72.0,74,30.04,10.0,NNE,16.1,26.5,N/A,,Partly Cloudy,30,2012-10-07 15:53:00
11:08 AM,80.6,71.6,74,30.04,10.0,NNE,13.8,23.0,N/A,,Mostly Cloudy,30,2012-10-07 16:08:00
11:42 AM,84.2,71.6,66,30.04,10.0,NE,20.7,29.9,N/A,,Mostly Cloudy,50,2012-10-07 16:42:00
11:53 AM,82.0,71.1,69,30.04,10.0,NNE,18.4,28.8,N/A,,Mostly Cloudy,30,2012-10-07 16:53:00
12:07 PM,80.6,71.6,74,30.04,10.0,ENE,19.6,25.3,N/A,,Mostly Cloudy,60,2012-10-07 17:07:00
12:29 PM,82.4,69.8,66,30.04,10.0,NE,16.1,23.0,N/A,,Mostly Cloudy,40,2012-10-07 17:29:00
12:53 PM,84.0,69.1,61,30.04,10.0,ENE,15.0,24.2,N/A,,Overcast,60,2012-10-07 17:53:00
1:53 PM,82.9,71.1,67,30.01,10.0,ENE,12.7,-,N/A,,Mostly Cloudy,60,2012-10-07 18:53:00
2:53 PM,81.0,69.1,67,30.00,10.0,ENE,12.7,-,N/A,,Overcast,60,2012-10-07 19:53:00
3:53 PM,79.0,68.0,69,29.99,10.0,NNE,12.7,-,N/A,,Overcast,30,2012-10-07 20:53:00
4:45 PM,73.4,69.8,88,29.98,10.0,NNW,13.8,18.4,0.00,,Overcast,340,2012-10-07 21:45:00
4:53 PM,72.0,69.1,91,29.99,10.0,NNW,13.8,20.7,0.00,,Overcast,330,2012-10-07 21:53:00
5:41 PM,69.8,66.2,88,30.00,10.0,North,11.5,18.4,N/A,,Overcast,350,2012-10-07 22:41:00
5:53 PM,70.0,66.0,87,29.99,10.0,NNW,10.4,18.4,N/A,,Overcast,340,2012-10-07 22:53:00
6:53 PM,68.0,64.9,90,30.01,6.0,North,11.5,20.7,0.00,Rain,Light Rain,350,2012-10-07 23:53:00
7:53 PM,68.0,64.9,90,30.02,8.0,NNW,13.8,17.3,0.00,,Overcast,340,2012-10-08 00:53:00
8:53 PM,66.9,64.9,93,30.04,6.0,NNW,12.7,20.7,0.02,Rain,Light Rain,330,2012-10-08 01:53:00
9:53 PM,66.0,64.9,96,30.06,7.0,NW,11.5,-,0.02,Rain,Light Rain,320,2012-10-08 02:53:00
10:11 PM,66.2,64.4,94,30.07,9.0,NNW,10.4,-,0.00,,Overcast,330,2012-10-08 03:11:00
10:53 PM,66.0,64.0,93,30.07,9.0,NNW,9.2,-,0.02,Rain,Light Rain,330,2012-10-08 03:53:00
11:48 PM,66.2,64.4,94,30.07,9.0,NW,8.1,-,0.01,Rain,Light Rain,320,2012-10-08 04:48:00
11:53 PM,66.0,64.0,93,30.07,9.0,NW,10.4,-,0.01,Rain,Light Rain,320,2012-10-08 04:53:00